createdAt,value
2022-11-13T00:01:07.250Z,102552.88
2022-11-13T00:03:33.752Z,102550.78
2022-11-13T00:06:02.077Z,102552.31
2022-11-13T00:08:29.071Z,102551.69
2022-11-13T00:11:04.405Z,102550.72
2022-11-13T00:13:31.537Z,102549.00
2022-11-13T00:16:00.503Z,102549.88
2022-11-13T00:18:28.469Z,102542.88
2022-11-13T00:20:56.342Z,102544.84
2022-11-13T00:23:23.020Z,102551.41
2022-11-13T00:25:50.044Z,102546.19
2022-11-13T00:28:16.600Z,102544.22
2022-11-13T00:30:43.169Z,102535.94
2022-11-13T00:33:09.711Z,102545.97
2022-11-13T00:35:36.264Z,102532.44
2022-11-13T00:38:02.771Z,102538.19
2022-11-13T00:40:29.333Z,102530.03
2022-11-13T00:42:55.894Z,102530.38
2022-11-13T00:45:22.416Z,102525.34
2022-11-13T00:47:48.938Z,102513.38
2022-11-13T00:50:15.544Z,102518.31
2022-11-13T00:52:42.048Z,102504.97
2022-11-13T00:55:08.680Z,102509.38
2022-11-13T00:57:35.212Z,102503.00
2022-11-13T01:00:01.757Z,102504.72
2022-11-13T01:02:28.274Z,102500.94
2022-11-13T01:04:54.796Z,102499.50
2022-11-13T01:07:21.355Z,102495.44
2022-11-13T01:09:51.308Z,102495.28
2022-11-13T01:12:17.925Z,102493.91
2022-11-13T01:14:44.518Z,102487.38
2022-11-13T01:17:11.052Z,102496.28
2022-11-13T01:19:37.619Z,102484.50
2022-11-13T01:22:04.139Z,102485.94
2022-11-13T01:24:31.398Z,102487.03
2022-11-13T01:26:57.902Z,102475.41
2022-11-13T01:29:24.418Z,102474.41
2022-11-13T01:31:50.949Z,102467.03
2022-11-13T01:34:18.050Z,102464.06
2022-11-13T01:36:44.557Z,102463.50
2022-11-13T01:39:12.485Z,102453.25
2022-11-13T01:41:40.207Z,102449.84
2022-11-13T01:44:14.014Z,102443.06
2022-11-13T01:46:53.927Z,102449.72
2022-11-13T01:49:38.638Z,102441.34
2022-11-13T01:52:11.066Z,102454.16
2022-11-13T01:54:53.526Z,102443.41
2022-11-13T01:57:20.781Z,102449.56
2022-11-13T01:59:53.000Z,102441.28
2022-11-13T02:02:19.582Z,102437.66
2022-11-13T02:04:47.020Z,102440.91
2022-11-13T02:07:17.456Z,102434.44
2022-11-13T02:09:47.892Z,102427.13
2022-11-13T02:12:19.914Z,102427.66
2022-11-13T02:14:52.213Z,102418.50
2022-11-13T02:17:43.447Z,102427.13
2022-11-13T02:20:10.750Z,102421.81
2022-11-13T02:23:00.654Z,102417.84
2022-11-13T02:25:31.610Z,102418.47
2022-11-13T02:27:58.501Z,102415.06
2022-11-13T02:30:29.586Z,102414.00
2022-11-13T02:32:58.613Z,102416.75
2022-11-13T02:35:32.653Z,102418.50
2022-11-13T02:38:02.578Z,102418.59
2022-11-13T02:40:29.922Z,102416.41
2022-11-13T02:42:56.499Z,102423.38
2022-11-13T02:45:23.030Z,102427.94
2022-11-13T02:47:49.747Z,102421.22
2022-11-13T02:50:17.912Z,102417.34
2022-11-13T02:52:44.649Z,102415.94
2022-11-13T02:55:11.190Z,102420.28
2022-11-13T02:57:37.804Z,102414.34
2022-11-13T03:00:09.214Z,102417.56
2022-11-13T03:02:40.137Z,102415.53
2022-11-13T03:05:14.472Z,102411.28
2022-11-13T03:07:41.876Z,102415.88
2022-11-13T03:10:10.550Z,102410.44
2022-11-13T03:12:37.649Z,102415.88
2022-11-13T03:15:05.736Z,102416.41
2022-11-13T03:17:32.598Z,102413.28
2022-11-13T03:19:59.504Z,102402.56
2022-11-13T03:22:27.090Z,102410.47
2022-11-13T03:24:53.820Z,102400.47
2022-11-13T03:27:20.626Z,102393.88
2022-11-13T03:29:47.259Z,102403.97
2022-11-13T03:32:13.850Z,102395.59
2022-11-13T03:34:40.352Z,102404.84
2022-11-13T03:37:06.922Z,102404.69
2022-11-13T03:39:33.480Z,102395.50
2022-11-13T03:42:00.002Z,102399.38
2022-11-13T03:44:26.564Z,102393.53
2022-11-13T03:46:53.097Z,102392.34
2022-11-13T03:49:19.660Z,102390.38
2022-11-13T03:51:47.685Z,102388.03
2022-11-13T03:54:14.195Z,102388.84
2022-11-13T03:56:40.742Z,102385.34
2022-11-13T03:59:07.560Z,102380.28
2022-11-13T04:01:34.340Z,102376.69
2022-11-13T04:04:00.877Z,102374.69
2022-11-13T04:06:27.376Z,102372.28
2022-11-13T04:08:53.977Z,102370.81
2022-11-13T04:11:20.531Z,102373.31
2022-11-13T04:13:47.042Z,102375.78
2022-11-13T04:16:13.677Z,102366.91
2022-11-13T04:18:40.166Z,102372.13
2022-11-13T04:21:06.746Z,102367.44
2022-11-13T04:23:33.252Z,102372.00
2022-11-13T04:25:59.795Z,102368.78
2022-11-13T04:28:26.653Z,102361.41
2022-11-13T04:30:55.101Z,102364.91
2022-11-13T04:33:21.676Z,102363.28
2022-11-13T04:35:48.842Z,102358.06
2022-11-13T04:38:15.905Z,102367.88
2022-11-13T04:40:42.859Z,102357.78
2022-11-13T04:43:09.393Z,102357.03
2022-11-13T04:45:36.253Z,102352.31
2022-11-13T04:48:02.841Z,102360.13
2022-11-13T04:50:31.197Z,102357.06
2022-11-13T04:52:57.776Z,102353.31
2022-11-13T04:55:24.333Z,102352.59
2022-11-13T04:57:55.247Z,102347.81
2022-11-13T05:00:22.147Z,102346.72
2022-11-13T05:02:48.891Z,102348.34
2022-11-13T05:05:15.587Z,102345.03
2022-11-13T05:07:42.601Z,102353.16
2022-11-13T05:10:09.776Z,102349.69
2022-11-13T05:12:36.554Z,102347.09
2022-11-13T05:15:03.570Z,102349.81
2022-11-13T05:17:30.108Z,102336.84
2022-11-13T05:19:56.640Z,102330.81
2022-11-13T05:22:23.188Z,102333.84
2022-11-13T05:24:49.691Z,102328.22
2022-11-13T05:27:17.715Z,102326.38
2022-11-13T05:29:44.977Z,102329.97
2022-11-13T05:32:11.581Z,102320.56
2022-11-13T05:34:38.089Z,102316.00
2022-11-13T05:37:04.593Z,102315.84
2022-11-13T05:39:31.074Z,102318.34
2022-11-13T05:41:57.616Z,102310.44
2022-11-13T05:44:24.128Z,102308.66
2022-11-13T05:46:50.662Z,102304.00
2022-11-13T05:49:17.176Z,102303.81
2022-11-13T05:51:43.741Z,102307.09
2022-11-13T05:54:10.987Z,102308.28
2022-11-13T05:56:37.766Z,102303.06
2022-11-13T05:59:05.285Z,102309.59
2022-11-13T06:01:33.316Z,102300.13
2022-11-13T06:04:01.533Z,102290.25
2022-11-13T06:06:30.144Z,102297.44
2022-11-13T06:08:59.496Z,102296.44
2022-11-13T06:11:28.514Z,102293.03
2022-11-13T06:13:56.283Z,102287.34
2022-11-13T06:16:30.024Z,102289.00
2022-11-13T06:18:58.754Z,102287.22
2022-11-13T06:21:29.562Z,102287.53
2022-11-13T06:24:00.873Z,102282.00
2022-11-13T06:26:33.393Z,102277.81
2022-11-13T06:29:01.862Z,102275.16
2022-11-13T06:31:30.935Z,102279.28
2022-11-13T06:34:01.534Z,102278.28
2022-11-13T06:36:33.346Z,102276.00
2022-11-13T06:39:00.515Z,102275.69
2022-11-13T06:41:31.068Z,102274.69
2022-11-13T06:44:02.797Z,102268.47
2022-11-13T06:46:30.504Z,102269.84
2022-11-13T06:48:57.733Z,102267.63
2022-11-13T06:51:29.961Z,102263.09
2022-11-13T06:53:58.028Z,102262.31
2022-11-13T06:56:25.747Z,102261.31
2022-11-13T06:58:54.767Z,102256.34
2022-11-13T07:01:24.180Z,102251.38
2022-11-13T07:03:50.837Z,102251.16
2022-11-13T07:06:23.709Z,102254.16
2022-11-13T07:08:51.220Z,102254.53
2022-11-13T07:11:20.556Z,102254.34
2022-11-13T07:13:48.064Z,102257.47
2022-11-13T07:16:17.791Z,102245.72
2022-11-13T07:18:51.078Z,102250.34
2022-11-13T07:21:17.577Z,102253.88
2022-11-13T07:23:44.479Z,102245.06
2022-11-13T07:26:11.918Z,102242.75
2022-11-13T07:28:39.665Z,102239.41
2022-11-13T07:31:07.434Z,102250.03
2022-11-13T07:33:34.322Z,102250.94
2022-11-13T07:36:01.116Z,102236.19
2022-11-13T07:38:27.980Z,102252.28
2022-11-13T07:40:57.047Z,102250.22
2022-11-13T07:43:23.582Z,102248.78
2022-11-13T07:45:54.500Z,102237.88
2022-11-13T07:48:22.634Z,102238.97
2022-11-13T07:50:49.769Z,102237.16
2022-11-13T07:53:17.488Z,102232.88
2022-11-13T07:55:44.193Z,102234.97
2022-11-13T07:58:10.822Z,102225.06
2022-11-13T08:00:37.388Z,102233.13
2022-11-13T08:03:09.472Z,102230.38
2022-11-13T08:05:36.312Z,102228.88
2022-11-13T08:08:03.814Z,102226.25
2022-11-13T08:10:30.519Z,102227.06
2022-11-13T08:13:05.572Z,102216.78
2022-11-13T08:15:32.473Z,102220.59
2022-11-13T08:18:00.928Z,102221.00
2022-11-13T08:20:28.673Z,102220.59
2022-11-13T08:22:59.670Z,102224.34
2022-11-13T08:25:26.710Z,102225.28
2022-11-13T08:27:54.346Z,102226.25
2022-11-13T08:30:22.620Z,102222.38
2022-11-13T08:32:49.321Z,102214.97
2022-11-13T08:35:19.514Z,102207.97
2022-11-13T08:37:46.513Z,102210.97
2022-11-13T08:40:13.012Z,102213.72
2022-11-13T08:42:39.594Z,102210.00
2022-11-13T08:45:06.509Z,102205.91
2022-11-13T08:47:33.045Z,102188.22
2022-11-13T08:49:59.604Z,102185.19
2022-11-13T08:52:26.144Z,102183.03
2022-11-13T08:54:52.683Z,102176.03
2022-11-13T08:57:19.217Z,102174.03
2022-11-13T08:59:45.695Z,102165.97
2022-11-13T09:02:16.006Z,102170.63
2022-11-13T09:04:42.855Z,102171.25
2022-11-13T09:07:09.955Z,102164.78
2022-11-13T09:09:37.193Z,102160.97
2022-11-13T09:12:04.050Z,102159.75
2022-11-13T09:14:30.717Z,102156.94
2022-11-13T09:16:57.579Z,102160.19
2022-11-13T09:19:24.254Z,102158.78
2022-11-13T09:21:51.908Z,102155.75
2022-11-13T09:24:18.425Z,102157.16
2022-11-13T09:26:44.962Z,102156.53
2022-11-13T09:29:11.533Z,102156.66
2022-11-13T09:31:40.929Z,102156.28
2022-11-13T09:34:08.365Z,102153.03
2022-11-13T09:36:35.105Z,102151.97
2022-11-13T09:39:01.683Z,102153.72
2022-11-13T09:41:34.672Z,102151.69
2022-11-13T09:44:06.912Z,102151.19
2022-11-13T09:46:50.690Z,102144.16
2022-11-13T09:49:21.989Z,102150.41
2022-11-13T09:51:54.661Z,102147.06
2022-11-13T09:54:22.425Z,102150.63
2022-11-13T09:57:02.698Z,102140.66
2022-11-13T09:59:53.931Z,102146.19
2022-11-13T10:02:42.457Z,102141.78
2022-11-13T10:05:45.287Z,102144.91
2022-11-13T10:08:24.024Z,102147.53
2022-11-13T10:10:56.169Z,102139.03
2022-11-13T10:13:38.171Z,102133.13
2022-11-13T10:16:26.053Z,102134.44
2022-11-13T10:19:01.199Z,102129.59
2022-11-13T10:21:37.233Z,102124.72
2022-11-13T10:24:15.827Z,102129.34
2022-11-13T10:26:42.545Z,102128.25
2022-11-13T10:29:15.165Z,102127.22
2022-11-13T10:31:47.353Z,102123.47
2022-11-13T10:34:15.515Z,102124.44
2022-11-13T10:37:00.308Z,102121.09
2022-11-13T10:39:26.930Z,102119.97
2022-11-13T10:41:55.192Z,102121.44
2022-11-13T10:44:25.235Z,102120.81
2022-11-13T10:46:52.212Z,102116.44
2022-11-13T10:49:21.715Z,102104.66
2022-11-13T10:51:57.006Z,102104.09
2022-11-13T10:54:23.571Z,102108.47
2022-11-13T10:57:01.977Z,102102.66
2022-11-13T10:59:40.381Z,102089.19
2022-11-13T11:02:17.845Z,102093.97
2022-11-13T11:04:44.821Z,102081.78
2022-11-13T11:07:23.447Z,102082.59
2022-11-13T11:09:51.422Z,102077.38
2022-11-13T11:12:30.277Z,102080.88
2022-11-13T11:15:15.485Z,102071.13
2022-11-13T11:18:02.021Z,102076.28
2022-11-13T11:20:47.055Z,102070.53
2022-11-13T11:23:42.973Z,102069.75
2022-11-13T11:26:21.087Z,102066.41
2022-11-13T11:29:21.755Z,102058.91
2022-11-13T11:32:03.821Z,102064.00
2022-11-13T11:34:39.598Z,102055.66
2022-11-13T11:37:17.019Z,102054.53
2022-11-13T11:40:12.657Z,102043.56
2022-11-13T11:43:05.449Z,102045.16
2022-11-13T11:45:44.587Z,102042.75
2022-11-13T11:48:16.253Z,102035.09
2022-11-13T11:50:55.799Z,102036.22
2022-11-13T11:53:58.435Z,102021.88
2022-11-13T11:56:31.223Z,102027.34
2022-11-13T11:59:19.226Z,102025.47
2022-11-13T12:02:06.094Z,102022.31
2022-11-13T12:04:50.577Z,102018.22
2022-11-13T12:07:41.606Z,102011.47
2022-11-13T12:10:17.081Z,102008.41
2022-11-13T12:12:43.551Z,102012.38
2022-11-13T12:15:12.963Z,102009.22
2022-11-13T12:17:45.547Z,102009.44
2022-11-13T12:20:26.083Z,102005.47
2022-11-13T12:23:10.006Z,101996.72
2022-11-13T12:25:45.468Z,101988.19
2022-11-13T12:28:20.219Z,101984.63
2022-11-13T12:31:12.762Z,101976.31
2022-11-13T12:34:11.298Z,101974.41
2022-11-13T12:36:38.613Z,101974.59
2022-11-13T12:39:14.135Z,101962.59
2022-11-13T12:41:50.302Z,101961.63
2022-11-13T12:44:27.503Z,101950.84
2022-11-13T12:46:57.141Z,101947.06
2022-11-13T12:49:23.600Z,101940.88
2022-11-13T12:52:03.637Z,101925.53
2022-11-13T12:54:36.125Z,101921.75
2022-11-13T12:57:18.605Z,101922.88
2022-11-13T12:59:53.358Z,101919.97
2022-11-13T13:02:40.585Z,101909.16
2022-11-13T13:05:20.232Z,101906.16
2022-11-13T13:08:24.452Z,101891.19
2022-11-13T13:11:21.505Z,101887.03
2022-11-13T13:14:11.897Z,101883.28
2022-11-13T13:16:38.522Z,101877.69
2022-11-13T13:19:08.363Z,101876.97
2022-11-13T13:21:44.912Z,101868.66
2022-11-13T13:24:29.781Z,101864.41
2022-11-13T13:26:57.157Z,101874.59
2022-11-13T13:29:26.001Z,101866.66
2022-11-13T13:32:15.495Z,101870.16
2022-11-13T13:35:26.571Z,101873.97
2022-11-13T13:38:07.992Z,101861.66
2022-11-13T13:40:52.513Z,101859.16
2022-11-13T13:43:32.484Z,101848.03
2022-11-13T13:46:01.727Z,101844.38
2022-11-13T13:48:31.589Z,101848.56
2022-11-13T13:51:00.973Z,101844.38
2022-11-13T13:53:33.944Z,101841.66
2022-11-13T13:56:03.857Z,101835.94
2022-11-13T13:58:35.718Z,101839.44
2022-11-13T14:01:18.251Z,101832.50
2022-11-13T14:03:45.695Z,101836.75
2022-11-13T14:06:24.032Z,101831.84
2022-11-13T14:08:50.642Z,101822.00
2022-11-13T14:11:26.991Z,101818.34
2022-11-13T14:13:53.610Z,101817.94
2022-11-13T14:16:20.234Z,101820.19
2022-11-13T14:18:47.188Z,101820.50
2022-11-13T14:21:24.951Z,101820.06
2022-11-13T14:23:54.128Z,101820.56
2022-11-13T14:26:21.181Z,101815.38
2022-11-13T14:29:01.813Z,101816.66
2022-11-13T14:31:32.535Z,101806.75
2022-11-13T14:34:16.421Z,101809.50
2022-11-13T14:36:44.071Z,101814.59
2022-11-13T14:39:30.191Z,101806.09
2022-11-13T14:41:59.606Z,101799.38
2022-11-13T14:44:32.900Z,101798.09
2022-11-13T14:47:06.242Z,101804.69
2022-11-13T14:49:36.130Z,101802.06
2022-11-13T14:52:04.073Z,101804.47
2022-11-13T14:55:00.047Z,101801.09
2022-11-13T14:57:23.002Z,101805.97
2022-11-13T14:59:49.549Z,101803.75
2022-11-13T15:02:16.115Z,101807.13
2022-11-13T15:04:42.692Z,101805.34
2022-11-13T15:07:41.065Z,101801.81
2022-11-13T15:10:15.314Z,101802.88
2022-11-13T15:12:46.100Z,101801.84
2022-11-13T15:15:19.285Z,101798.81
2022-11-13T15:17:48.820Z,101791.13
2022-11-13T15:20:27.668Z,101794.03
2022-11-13T15:22:56.976Z,101791.28
2022-11-13T15:25:25.258Z,101785.97
2022-11-13T15:27:52.163Z,101785.16
2022-11-13T15:30:19.461Z,101782.84
2022-11-13T15:32:46.307Z,101786.97
2022-11-13T15:35:18.462Z,101771.41
2022-11-13T15:37:45.344Z,101774.41
2022-11-13T15:40:13.767Z,101773.78
2022-11-13T15:42:40.818Z,101774.63
2022-11-13T15:45:12.668Z,101770.25
2022-11-13T15:47:39.177Z,101765.22
2022-11-13T15:50:15.255Z,101774.03
2022-11-13T15:52:49.155Z,101761.78
2022-11-13T15:55:28.619Z,101762.38
2022-11-13T15:57:56.072Z,101760.88
2022-11-13T16:00:26.418Z,101765.13
2022-11-13T16:05:27.295Z,101753.81
2022-11-13T16:07:54.645Z,101748.78
2022-11-13T16:10:24.892Z,101744.97
2022-11-13T16:12:52.457Z,101743.19
2022-11-13T16:15:20.028Z,101739.16
2022-11-13T16:17:51.949Z,101736.44
2022-11-13T16:20:18.838Z,101734.56
2022-11-13T16:22:45.919Z,101734.47
2022-11-13T16:25:15.825Z,101732.66
2022-11-13T16:27:42.932Z,101722.75
2022-11-13T16:30:21.480Z,101726.88
2022-11-13T16:32:48.282Z,101725.44
2022-11-13T16:35:19.788Z,101722.06
2022-11-13T16:37:46.656Z,101727.59
2022-11-13T16:40:25.491Z,101723.66
2022-11-13T16:42:52.946Z,101716.84
2022-11-13T16:45:20.892Z,101716.31
2022-11-13T16:47:48.267Z,101712.75
2022-11-13T16:50:31.275Z,101710.03
2022-11-13T16:52:58.089Z,101703.63
2022-11-13T16:55:24.680Z,101711.97
2022-11-13T16:57:51.219Z,101702.22
2022-11-13T17:00:19.543Z,101709.19
2022-11-13T17:02:46.618Z,101704.38
2022-11-13T17:05:16.013Z,101698.09
2022-11-13T17:07:42.718Z,101702.41
2022-11-13T17:10:32.566Z,101692.41
2022-11-13T17:12:59.995Z,101700.59
2022-11-13T17:15:26.612Z,101692.28
2022-11-13T17:17:57.367Z,101688.94
2022-11-13T17:20:24.488Z,101695.34
2022-11-13T17:22:51.051Z,101689.63
2022-11-13T17:25:18.849Z,101685.69
2022-11-13T17:27:45.364Z,101685.53
2022-11-13T17:30:13.383Z,101687.44
2022-11-13T17:32:39.952Z,101686.81
2022-11-13T17:35:06.959Z,101690.28
2022-11-13T17:37:33.973Z,101680.38
2022-11-13T17:40:00.770Z,101672.72
2022-11-13T17:42:28.617Z,101676.94
2022-11-13T17:44:55.479Z,101676.91
2022-11-13T17:47:22.348Z,101676.34
2022-11-13T17:49:48.950Z,101673.38
2022-11-13T17:52:15.491Z,101678.94
2022-11-13T17:54:42.020Z,101679.19
2022-11-13T17:57:10.158Z,101679.81
2022-11-13T17:59:36.766Z,101687.06
2022-11-13T18:02:03.435Z,101683.16
2022-11-13T18:04:30.020Z,101678.97
2022-11-13T18:06:56.608Z,101672.06
2022-11-13T18:09:23.099Z,101674.53
2022-11-13T18:11:49.629Z,101668.47
2022-11-13T18:14:16.241Z,101677.34
2022-11-13T18:16:42.911Z,101667.59
2022-11-13T18:19:09.487Z,101669.06
2022-11-13T18:21:36.977Z,101664.66
2022-11-13T18:24:07.753Z,101659.66
2022-11-13T18:26:35.077Z,101652.03
2022-11-13T18:29:03.358Z,101651.28
2022-11-13T18:31:30.093Z,101660.66
2022-11-13T18:34:01.798Z,101655.50
2022-11-13T18:36:28.796Z,101656.72
2022-11-13T18:38:56.023Z,101657.38
2022-11-13T18:41:23.225Z,101659.13
2022-11-13T18:43:51.638Z,101650.28
2022-11-13T18:46:21.010Z,101650.84
2022-11-13T18:48:48.683Z,101645.44
2022-11-13T18:51:18.788Z,101647.69
2022-11-13T18:53:50.356Z,101648.69
2022-11-13T18:56:23.213Z,101642.75
2022-11-13T18:58:52.103Z,101642.50
2022-11-13T19:01:27.646Z,101633.34
2022-11-13T19:06:43.486Z,101631.72
2022-11-13T19:09:12.819Z,101626.22
2022-11-13T19:11:40.268Z,101620.34
2022-11-13T19:14:07.461Z,101611.94
2022-11-13T19:16:38.210Z,101616.56
2022-11-13T19:19:19.346Z,101607.84
2022-11-13T19:21:46.106Z,101608.16
2022-11-13T19:24:14.570Z,101606.78
2022-11-13T19:26:42.684Z,101609.66
2022-11-13T19:29:09.270Z,101612.47
2022-11-13T19:31:35.810Z,101613.47
2022-11-13T19:34:05.910Z,101618.31
2022-11-13T19:36:33.515Z,101615.50
2022-11-13T19:39:00.245Z,101620.72
2022-11-13T19:41:29.127Z,101623.69
2022-11-13T19:43:59.736Z,101623.53
2022-11-13T19:46:26.989Z,101628.34
2022-11-13T19:48:53.513Z,101608.84
2022-11-13T19:51:23.080Z,101611.66
2022-11-13T19:53:58.251Z,101605.66
2022-11-13T19:56:27.078Z,101603.03
2022-11-13T19:58:54.055Z,101596.81
2022-11-13T20:01:24.833Z,101599.44
2022-11-13T20:04:00.169Z,101594.38
2022-11-13T20:06:28.789Z,101597.19
2022-11-13T20:08:55.708Z,101591.75
2022-11-13T20:11:22.269Z,101589.53
2022-11-13T20:13:49.132Z,101588.13
2022-11-13T20:16:17.295Z,101578.69
2022-11-13T20:18:44.539Z,101578.25
2022-11-13T20:21:11.567Z,101576.09
2022-11-13T20:23:38.571Z,101573.06
2022-11-13T20:26:10.191Z,101577.31
2022-11-13T20:28:36.704Z,101578.91
2022-11-13T20:31:19.300Z,101580.50
2022-11-13T20:33:50.924Z,101575.44
2022-11-13T20:36:18.126Z,101572.44
2022-11-13T20:38:50.648Z,101568.63
2022-11-13T20:41:20.387Z,101560.41
2022-11-13T20:43:48.813Z,101556.00
2022-11-13T20:46:18.042Z,101552.41
2022-11-13T20:48:46.045Z,101567.59
2022-11-13T20:51:21.913Z,101565.78
2022-11-13T20:53:48.537Z,101565.59
2022-11-13T20:56:16.261Z,101559.38
2022-11-13T20:58:43.130Z,101556.78
2022-11-13T21:01:12.970Z,101556.59
2022-11-13T21:03:43.166Z,101547.19
2022-11-13T21:06:12.942Z,101551.31
2022-11-13T21:08:39.822Z,101552.06
2022-11-13T21:11:07.889Z,101550.88
2022-11-13T21:13:35.059Z,101546.09
2022-11-13T21:16:07.184Z,101533.94
2022-11-13T21:18:33.919Z,101531.13
2022-11-13T21:21:08.243Z,101532.28
2022-11-13T21:23:35.102Z,101522.72
2022-11-13T21:26:03.152Z,101518.88
2022-11-13T21:28:33.717Z,101519.06
2022-11-13T21:31:02.767Z,101512.88
2022-11-13T21:33:30.846Z,101512.91
2022-11-13T21:36:04.484Z,101517.84
2022-11-13T21:38:31.348Z,101513.59
2022-11-13T21:41:19.014Z,101508.44
2022-11-13T21:43:45.661Z,101510.25
2022-11-13T21:46:14.242Z,101512.22
2022-11-13T21:48:42.107Z,101504.22
2022-11-13T21:51:10.049Z,101500.63
2022-11-13T21:53:37.348Z,101494.59
2022-11-13T21:56:04.641Z,101496.41
2022-11-13T21:58:31.942Z,101491.78
2022-11-13T22:00:59.516Z,101487.38
2022-11-13T22:03:28.140Z,101496.63
2022-11-13T22:06:13.506Z,101495.63
2022-11-13T22:08:40.099Z,101488.81
2022-11-13T22:11:07.074Z,101496.00
2022-11-13T22:13:34.109Z,101490.41
2022-11-13T22:16:04.158Z,101493.59
2022-11-13T22:18:30.960Z,101492.59
2022-11-13T22:21:05.255Z,101483.75
2022-11-13T22:23:32.752Z,101493.97
2022-11-13T22:26:11.091Z,101499.81
2022-11-13T22:28:39.566Z,101492.94
2022-11-13T22:31:07.399Z,101493.38
2022-11-13T22:33:36.483Z,101486.16
2022-11-13T22:36:14.760Z,101479.09
2022-11-13T22:38:41.647Z,101472.69
2022-11-13T22:41:22.931Z,101475.09
2022-11-13T22:43:53.078Z,101472.09
2022-11-13T22:46:22.861Z,101478.53
2022-11-13T22:48:51.114Z,101478.59
2022-11-13T22:51:21.085Z,101479.75
2022-11-13T22:53:51.024Z,101483.75
2022-11-13T22:56:19.032Z,101473.75
2022-11-13T22:58:46.159Z,101480.56
2022-11-13T23:01:22.158Z,101465.34
2022-11-13T23:03:50.546Z,101471.34
2022-11-13T23:06:20.625Z,101460.53
2022-11-13T23:08:48.069Z,101457.91
2022-11-13T23:11:18.547Z,101456.50
2022-11-13T23:13:47.944Z,101458.09
2022-11-13T23:16:15.043Z,101452.47
2022-11-13T23:18:41.825Z,101457.31
2022-11-13T23:21:11.539Z,101443.22
2022-11-13T23:23:38.356Z,101445.84
2022-11-13T23:26:06.752Z,101448.28
2022-11-13T23:28:33.785Z,101435.03
2022-11-13T23:31:00.325Z,101433.59
2022-11-13T23:33:26.851Z,101432.56
2022-11-13T23:35:53.388Z,101433.03
2022-11-13T23:38:20.033Z,101434.31
2022-11-13T23:40:46.866Z,101439.38
2022-11-13T23:43:13.427Z,101433.44
2022-11-13T23:45:39.943Z,101425.81
2022-11-13T23:48:06.808Z,101427.41
2022-11-13T23:50:33.316Z,101424.84
2022-11-13T23:52:59.875Z,101424.28
2022-11-13T23:55:26.389Z,101420.94
2022-11-13T23:58:00.680Z,101419.19
